sensor_id;sensor_type;location;lat;lon;timestamp;P1;durP1;ratioP1;P2;durP2;ratioP2
59846;SDS011;45728;48.788;2.302;2023-02-14T00:02:17;68.00;;;29.20;;
59846;SDS011;45728;48.788;2.302;2023-02-14T00:04:43;60.40;;;26.95;;
59846;SDS011;45728;48.788;2.302;2023-02-14T00:07:11;65.85;;;46.45;;
59846;SDS011;45728;48.788;2.302;2023-02-14T00:09:37;61.00;;;46.42;;
59846;SDS011;45728;48.788;2.302;2023-02-14T00:12:03;60.88;;;44.88;;
59846;SDS011;45728;48.788;2.302;2023-02-14T00:14:30;63.72;;;29.40;;
59846;SDS011;45728;48.788;2.302;2023-02-14T00:17:14;60.42;;;27.95;;
59846;SDS011;45728;48.788;2.302;2023-02-14T00:19:40;61.58;;;45.53;;
59846;SDS011;45728;48.788;2.302;2023-02-14T00:22:06;63.13;;;30.48;;
59846;SDS011;45728;48.788;2.302;2023-02-14T00:24:32;60.35;;;28.88;;
59846;SDS011;45728;48.788;2.302;2023-02-14T00:26:58;56.05;;;28.17;;
59846;SDS011;45728;48.788;2.302;2023-02-14T00:29:27;60.00;;;45.38;;
59846;SDS011;45728;48.788;2.302;2023-02-14T00:31:54;69.28;;;48.55;;
59846;SDS011;45728;48.788;2.302;2023-02-14T00:34:20;62.00;;;28.20;;
59846;SDS011;45728;48.788;2.302;2023-02-14T00:36:47;62.88;;;46.63;;
59846;SDS011;45728;48.788;2.302;2023-02-14T00:39:13;56.40;;;28.02;;
59846;SDS011;45728;48.788;2.302;2023-02-14T00:41:40;63.13;;;45.80;;
59846;SDS011;45728;48.788;2.302;2023-02-14T00:44:07;62.10;;;47.50;;
59846;SDS011;45728;48.788;2.302;2023-02-14T00:46:34;60.55;;;29.83;;
59846;SDS011;45728;48.788;2.302;2023-02-14T00:49:01;57.63;;;28.15;;
59846;SDS011;45728;48.788;2.302;2023-02-14T00:51:27;65.47;;;29.63;;
59846;SDS011;45728;48.788;2.302;2023-02-14T00:53:54;59.17;;;27.55;;
59846;SDS011;45728;48.788;2.302;2023-02-14T00:56:20;60.85;;;30.55;;
59846;SDS011;45728;48.788;2.302;2023-02-14T00:58:47;61.72;;;47.30;;
59846;SDS011;45728;48.788;2.302;2023-02-14T01:01:13;64.13;;;29.02;;
59846;SDS011;45728;48.788;2.302;2023-02-14T01:03:41;60.33;;;47.08;;
59846;SDS011;45728;48.788;2.302;2023-02-14T01:06:07;58.92;;;29.02;;
59846;SDS011;45728;48.788;2.302;2023-02-14T01:08:33;63.92;;;47.95;;
59846;SDS011;45728;48.788;2.302;2023-02-14T01:11:06;58.58;;;28.02;;
59846;SDS011;45728;48.788;2.302;2023-02-14T01:13:34;64.53;;;27.80;;
59846;SDS011;45728;48.788;2.302;2023-02-14T01:16:03;64.05;;;29.23;;
59846;SDS011;45728;48.788;2.302;2023-02-14T01:18:31;61.78;;;27.38;;
59846;SDS011;45728;48.788;2.302;2023-02-14T01:21:07;63.88;;;46.47;;
59846;SDS011;45728;48.788;2.302;2023-02-14T01:23:54;57.88;;;27.95;;
59846;SDS011;45728;48.788;2.302;2023-02-14T01:26:22;56.67;;;26.75;;
59846;SDS011;45728;48.788;2.302;2023-02-14T01:28:48;63.97;;;29.42;;
59846;SDS011;45728;48.788;2.302;2023-02-14T01:31:19;58.15;;;29.70;;
59846;SDS011;45728;48.788;2.302;2023-02-14T01:33:47;56.15;;;27.75;;
59846;SDS011;45728;48.788;2.302;2023-02-14T01:36:34;59.72;;;28.70;;
59846;SDS011;45728;48.788;2.302;2023-02-14T01:39:06;63.67;;;29.30;;
59846;SDS011;45728;48.788;2.302;2023-02-14T01:41:36;62.65;;;45.65;;
59846;SDS011;45728;48.788;2.302;2023-02-14T01:44:04;59.08;;;28.63;;
59846;SDS011;45728;48.788;2.302;2023-02-14T01:46:31;59.85;;;26.95;;
59846;SDS011;45728;48.788;2.302;2023-02-14T01:49:07;55.05;;;28.08;;
59846;SDS011;45728;48.788;2.302;2023-02-14T01:51:34;55.15;;;27.13;;
59846;SDS011;45728;48.788;2.302;2023-02-14T01:54:05;58.63;;;27.75;;
59846;SDS011;45728;48.788;2.302;2023-02-14T01:56:37;59.17;;;27.30;;
59846;SDS011;45728;48.788;2.302;2023-02-14T01:59:08;60.35;;;28.65;;
59846;SDS011;45728;48.788;2.302;2023-02-14T02:01:37;58.15;;;29.48;;
59846;SDS011;45728;48.788;2.302;2023-02-14T02:04:06;58.83;;;46.38;;
59846;SDS011;45728;48.788;2.302;2023-02-14T02:06:37;55.50;;;26.65;;
59846;SDS011;45728;48.788;2.302;2023-02-14T02:11:59;58.20;;;28.02;;
59846;SDS011;45728;48.788;2.302;2023-02-14T02:14:27;59.28;;;27.45;;
59846;SDS011;45728;48.788;2.302;2023-02-14T02:19:48;60.00;;;28.88;;
59846;SDS011;45728;48.788;2.302;2023-02-14T02:33:24;55.15;;;25.60;;
59846;SDS011;45728;48.788;2.302;2023-02-14T02:36:23;58.50;;;43.35;;
59846;SDS011;45728;48.788;2.302;2023-02-14T02:39:01;61.63;;;28.45;;
59846;SDS011;45728;48.788;2.302;2023-02-14T02:41:47;52.08;;;25.17;;
59846;SDS011;45728;48.788;2.302;2023-02-14T02:44:20;47.35;;;24.70;;
59846;SDS011;45728;48.788;2.302;2023-02-14T02:46:54;58.53;;;26.52;;
59846;SDS011;45728;48.788;2.302;2023-02-14T02:49:31;57.70;;;26.73;;
59846;SDS011;45728;48.788;2.302;2023-02-14T02:58:33;61.17;;;26.88;;
59846;SDS011;45728;48.788;2.302;2023-02-14T03:01:16;55.92;;;25.17;;
59846;SDS011;45728;48.788;2.302;2023-02-14T03:03:47;58.65;;;43.53;;
59846;SDS011;45728;48.788;2.302;2023-02-14T03:06:35;55.42;;;24.88;;
59846;SDS011;45728;48.788;2.302;2023-02-14T03:09:11;58.50;;;26.42;;
59846;SDS011;45728;48.788;2.302;2023-02-14T03:11:39;52.03;;;28.27;;
59846;SDS011;45728;48.788;2.302;2023-02-14T03:14:25;58.35;;;26.33;;
59846;SDS011;45728;48.788;2.302;2023-02-14T03:17:14;55.70;;;25.42;;
59846;SDS011;45728;48.788;2.302;2023-02-14T03:25:36;54.75;;;26.33;;
59846;SDS011;45728;48.788;2.302;2023-02-14T03:33:40;56.90;;;26.20;;
59846;SDS011;45728;48.788;2.302;2023-02-14T03:39:18;61.45;;;27.30;;
59846;SDS011;45728;48.788;2.302;2023-02-14T03:42:04;59.55;;;27.63;;
59846;SDS011;45728;48.788;2.302;2023-02-14T03:44:36;58.42;;;27.50;;
59846;SDS011;45728;48.788;2.302;2023-02-14T03:47:15;59.67;;;28.60;;
59846;SDS011;45728;48.788;2.302;2023-02-14T03:49:46;58.08;;;28.50;;
59846;SDS011;45728;48.788;2.302;2023-02-14T03:52:17;60.55;;;28.58;;
59846;SDS011;45728;48.788;2.302;2023-02-14T03:54:45;57.88;;;27.83;;
59846;SDS011;45728;48.788;2.302;2023-02-14T03:57:18;61.72;;;28.55;;
59846;SDS011;45728;48.788;2.302;2023-02-14T03:59:48;67.20;;;31.90;;
59846;SDS011;45728;48.788;2.302;2023-02-14T04:02:22;61.08;;;26.85;;
59846;SDS011;45728;48.788;2.302;2023-02-14T04:04:56;56.28;;;28.38;;
59846;SDS011;45728;48.788;2.302;2023-02-14T04:07:25;59.33;;;27.48;;
59846;SDS011;45728;48.788;2.302;2023-02-14T04:09:51;69.90;;;29.83;;
59846;SDS011;45728;48.788;2.302;2023-02-14T04:12:17;57.42;;;29.00;;
59846;SDS011;45728;48.788;2.302;2023-02-14T04:14:44;65.18;;;28.02;;
59846;SDS011;45728;48.788;2.302;2023-02-14T04:17:10;62.22;;;28.02;;
59846;SDS011;45728;48.788;2.302;2023-02-14T04:19:56;62.75;;;28.52;;
59846;SDS011;45728;48.788;2.302;2023-02-14T04:22:22;57.80;;;27.63;;
59846;SDS011;45728;48.788;2.302;2023-02-14T04:24:48;60.50;;;28.30;;
59846;SDS011;45728;48.788;2.302;2023-02-14T04:27:14;55.20;;;27.63;;
59846;SDS011;45728;48.788;2.302;2023-02-14T04:29:44;65.40;;;28.90;;
59846;SDS011;45728;48.788;2.302;2023-02-14T04:32:16;56.67;;;27.85;;
59846;SDS011;45728;48.788;2.302;2023-02-14T04:34:44;55.97;;;27.05;;
59846;SDS011;45728;48.788;2.302;2023-02-14T04:37:10;59.65;;;28.10;;
59846;SDS011;45728;48.788;2.302;2023-02-14T04:39:37;59.92;;;27.45;;
59846;SDS011;45728;48.788;2.302;2023-02-14T04:42:03;58.80;;;28.17;;
59846;SDS011;45728;48.788;2.302;2023-02-14T04:44:30;55.63;;;28.55;;
59846;SDS011;45728;48.788;2.302;2023-02-14T04:46:58;59.17;;;28.02;;
59846;SDS011;45728;48.788;2.302;2023-02-14T04:49:25;59.13;;;27.50;;
59846;SDS011;45728;48.788;2.302;2023-02-14T04:51:51;50.78;;;25.33;;
59846;SDS011;45728;48.788;2.302;2023-02-14T04:54:17;54.15;;;26.83;;
59846;SDS011;45728;48.788;2.302;2023-02-14T04:56:43;59.15;;;26.85;;
59846;SDS011;45728;48.788;2.302;2023-02-14T04:59:09;63.67;;;28.45;;
59846;SDS011;45728;48.788;2.302;2023-02-14T05:01:35;54.83;;;27.13;;
59846;SDS011;45728;48.788;2.302;2023-02-14T05:04:02;60.67;;;27.60;;
59846;SDS011;45728;48.788;2.302;2023-02-14T05:06:28;59.25;;;27.17;;
59846;SDS011;45728;48.788;2.302;2023-02-14T05:08:54;58.53;;;26.83;;
59846;SDS011;45728;48.788;2.302;2023-02-14T05:11:21;55.33;;;26.48;;
59846;SDS011;45728;48.788;2.302;2023-02-14T05:13:47;63.95;;;28.10;;
59846;SDS011;45728;48.788;2.302;2023-02-14T05:16:13;54.47;;;26.95;;
59846;SDS011;45728;48.788;2.302;2023-02-14T05:18:39;54.90;;;28.33;;
59846;SDS011;45728;48.788;2.302;2023-02-14T05:21:05;54.40;;;25.58;;
59846;SDS011;45728;48.788;2.302;2023-02-14T05:23:31;60.50;;;27.63;;
59846;SDS011;45728;48.788;2.302;2023-02-14T05:25:58;64.95;;;28.27;;
59846;SDS011;45728;48.788;2.302;2023-02-14T05:28:24;58.78;;;26.83;;
59846;SDS011;45728;48.788;2.302;2023-02-14T05:30:50;56.85;;;27.00;;
59846;SDS011;45728;48.788;2.302;2023-02-14T05:33:17;59.25;;;26.83;;
59846;SDS011;45728;48.788;2.302;2023-02-14T05:35:43;62.42;;;27.80;;
59846;SDS011;45728;48.788;2.302;2023-02-14T05:38:10;56.38;;;25.40;;
59846;SDS011;45728;48.788;2.302;2023-02-14T05:40:37;57.28;;;26.40;;
59846;SDS011;45728;48.788;2.302;2023-02-14T05:43:03;60.30;;;26.58;;
59846;SDS011;45728;48.788;2.302;2023-02-14T05:45:29;61.25;;;27.83;;
59846;SDS011;45728;48.788;2.302;2023-02-14T05:47:55;55.13;;;27.83;;
59846;SDS011;45728;48.788;2.302;2023-02-14T05:50:22;57.38;;;27.60;;
59846;SDS011;45728;48.788;2.302;2023-02-14T05:52:48;56.65;;;28.65;;
59846;SDS011;45728;48.788;2.302;2023-02-14T05:55:14;56.03;;;28.15;;
59846;SDS011;45728;48.788;2.302;2023-02-14T05:57:40;58.22;;;27.42;;
59846;SDS011;45728;48.788;2.302;2023-02-14T06:00:06;57.83;;;28.02;;
59846;SDS011;45728;48.788;2.302;2023-02-14T06:02:33;62.00;;;26.40;;
59846;SDS011;45728;48.788;2.302;2023-02-14T06:04:59;64.30;;;27.42;;
59846;SDS011;45728;48.788;2.302;2023-02-14T06:07:25;61.78;;;28.92;;
59846;SDS011;45728;48.788;2.302;2023-02-14T06:09:51;58.60;;;26.40;;
59846;SDS011;45728;48.788;2.302;2023-02-14T06:12:17;66.68;;;29.67;;
59846;SDS011;45728;48.788;2.302;2023-02-14T06:14:43;61.85;;;28.13;;
59846;SDS011;45728;48.788;2.302;2023-02-14T06:17:10;58.83;;;29.40;;
59846;SDS011;45728;48.788;2.302;2023-02-14T06:19:36;61.55;;;28.58;;
59846;SDS011;45728;48.788;2.302;2023-02-14T06:22:02;58.85;;;28.45;;
59846;SDS011;45728;48.788;2.302;2023-02-14T06:24:28;57.00;;;27.02;;
59846;SDS011;45728;48.788;2.302;2023-02-14T06:26:54;60.00;;;27.42;;
59846;SDS011;45728;48.788;2.302;2023-02-14T06:29:20;58.15;;;27.85;;
59846;SDS011;45728;48.788;2.302;2023-02-14T06:31:47;59.70;;;29.25;;
59846;SDS011;45728;48.788;2.302;2023-02-14T06:34:13;67.53;;;27.60;;
59846;SDS011;45728;48.788;2.302;2023-02-14T06:36:39;57.97;;;26.63;;
59846;SDS011;45728;48.788;2.302;2023-02-14T06:39:05;68.65;;;27.98;;
59846;SDS011;45728;48.788;2.302;2023-02-14T06:41:31;57.17;;;27.55;;
59846;SDS011;45728;48.788;2.302;2023-02-14T06:43:57;58.20;;;28.08;;
59846;SDS011;45728;48.788;2.302;2023-02-14T06:46:23;71.40;;;27.17;;
59846;SDS011;45728;48.788;2.302;2023-02-14T06:48:49;63.38;;;28.08;;
59846;SDS011;45728;48.788;2.302;2023-02-14T06:51:15;57.08;;;27.70;;
59846;SDS011;45728;48.788;2.302;2023-02-14T06:53:41;62.47;;;28.58;;
59846;SDS011;45728;48.788;2.302;2023-02-14T06:56:07;58.45;;;28.30;;
59846;SDS011;45728;48.788;2.302;2023-02-14T06:58:33;58.78;;;27.33;;
59846;SDS011;45728;48.788;2.302;2023-02-14T07:01:00;64.65;;;27.63;;
59846;SDS011;45728;48.788;2.302;2023-02-14T07:03:26;62.88;;;29.50;;
59846;SDS011;45728;48.788;2.302;2023-02-14T07:05:52;63.97;;;29.85;;
59846;SDS011;45728;48.788;2.302;2023-02-14T07:08:19;68.55;;;29.02;;
59846;SDS011;45728;48.788;2.302;2023-02-14T07:10:45;62.42;;;29.35;;
59846;SDS011;45728;48.788;2.302;2023-02-14T07:13:11;59.40;;;29.88;;
59846;SDS011;45728;48.788;2.302;2023-02-14T07:15:37;59.90;;;26.98;;
59846;SDS011;45728;48.788;2.302;2023-02-14T07:18:04;58.97;;;27.88;;
59846;SDS011;45728;48.788;2.302;2023-02-14T07:20:31;60.67;;;28.85;;
59846;SDS011;45728;48.788;2.302;2023-02-14T07:22:57;62.83;;;28.13;;
59846;SDS011;45728;48.788;2.302;2023-02-14T07:25:23;70.82;;;29.92;;
59846;SDS011;45728;48.788;2.302;2023-02-14T07:27:49;62.88;;;29.10;;
59846;SDS011;45728;48.788;2.302;2023-02-14T07:30:15;66.38;;;29.38;;
59846;SDS011;45728;48.788;2.302;2023-02-14T07:32:41;66.13;;;29.08;;
59846;SDS011;45728;48.788;2.302;2023-02-14T07:35:07;60.80;;;28.13;;
59846;SDS011;45728;48.788;2.302;2023-02-14T07:37:34;64.07;;;27.27;;
59846;SDS011;45728;48.788;2.302;2023-02-14T07:40:01;65.55;;;29.80;;
59846;SDS011;45728;48.788;2.302;2023-02-14T07:42:27;62.97;;;30.38;;
59846;SDS011;45728;48.788;2.302;2023-02-14T07:44:53;64.03;;;30.63;;
59846;SDS011;45728;48.788;2.302;2023-02-14T07:47:19;64.75;;;30.23;;
59846;SDS011;45728;48.788;2.302;2023-02-14T07:49:45;70.50;;;31.73;;
59846;SDS011;45728;48.788;2.302;2023-02-14T07:52:11;62.15;;;31.05;;
59846;SDS011;45728;48.788;2.302;2023-02-14T07:54:37;74.88;;;33.17;;
59846;SDS011;45728;48.788;2.302;2023-02-14T07:57:04;73.93;;;33.92;;
59846;SDS011;45728;48.788;2.302;2023-02-14T07:59:30;77.22;;;54.25;;
59846;SDS011;45728;48.788;2.302;2023-02-14T08:01:56;66.47;;;31.75;;
59846;SDS011;45728;48.788;2.302;2023-02-14T08:04:22;63.70;;;32.30;;
59846;SDS011;45728;48.788;2.302;2023-02-14T08:06:51;69.97;;;32.45;;
59846;SDS011;45728;48.788;2.302;2023-02-14T08:09:18;66.28;;;31.90;;
59846;SDS011;45728;48.788;2.302;2023-02-14T08:11:51;67.15;;;31.08;;
59846;SDS011;45728;48.788;2.302;2023-02-14T08:14:37;73.25;;;32.38;;
59846;SDS011;45728;48.788;2.302;2023-02-14T08:17:03;70.18;;;31.98;;
59846;SDS011;45728;48.788;2.302;2023-02-14T08:19:31;73.63;;;55.17;;
59846;SDS011;45728;48.788;2.302;2023-02-14T08:21:58;73.68;;;33.25;;
59846;SDS011;45728;48.788;2.302;2023-02-14T08:24:24;83.88;;;33.95;;
59846;SDS011;45728;48.788;2.302;2023-02-14T08:26:51;77.00;;;39.63;;
59846;SDS011;45728;48.788;2.302;2023-02-14T08:29:17;84.45;;;39.22;;
59846;SDS011;45728;48.788;2.302;2023-02-14T08:31:43;112.68;;;49.70;;
59846;SDS011;45728;48.788;2.302;2023-02-14T08:34:09;117.07;;;54.40;;
59846;SDS011;45728;48.788;2.302;2023-02-14T08:36:35;84.57;;;41.47;;
59846;SDS011;45728;48.788;2.302;2023-02-14T08:39:02;94.25;;;68.20;;
59846;SDS011;45728;48.788;2.302;2023-02-14T08:41:29;92.88;;;47.67;;
59846;SDS011;45728;48.788;2.302;2023-02-14T08:43:55;99.45;;;75.63;;
59846;SDS011;45728;48.788;2.302;2023-02-14T08:46:21;93.07;;;70.05;;
59846;SDS011;45728;48.788;2.302;2023-02-14T08:48:48;87.95;;;44.33;;
59846;SDS011;45728;48.788;2.302;2023-02-14T08:53:43;84.28;;;40.88;;
59846;SDS011;45728;48.788;2.302;2023-02-14T08:56:11;90.63;;;70.57;;
59846;SDS011;45728;48.788;2.302;2023-02-14T08:58:39;90.05;;;43.05;;
59846;SDS011;45728;48.788;2.302;2023-02-14T09:01:09;91.47;;;72.90;;
59846;SDS011;45728;48.788;2.302;2023-02-14T09:03:36;98.78;;;77.13;;
59846;SDS011;45728;48.788;2.302;2023-02-14T09:06:03;101.80;;;76.80;;
59846;SDS011;45728;48.788;2.302;2023-02-14T09:08:35;89.28;;;46.58;;
59846;SDS011;45728;48.788;2.302;2023-02-14T09:11:12;90.88;;;42.95;;
59846;SDS011;45728;48.788;2.302;2023-02-14T09:13:41;90.57;;;70.55;;
59846;SDS011;45728;48.788;2.302;2023-02-14T09:16:08;94.88;;;73.05;;
59846;SDS011;45728;48.788;2.302;2023-02-14T09:18:35;95.40;;;73.20;;
59846;SDS011;45728;48.788;2.302;2023-02-14T09:21:02;89.78;;;69.88;;
59846;SDS011;45728;48.788;2.302;2023-02-14T09:23:32;98.63;;;74.85;;
59846;SDS011;45728;48.788;2.302;2023-02-14T09:25:59;104.63;;;78.95;;
59846;SDS011;45728;48.788;2.302;2023-02-14T09:28:29;104.40;;;82.15;;
59846;SDS011;45728;48.788;2.302;2023-02-14T09:30:56;97.97;;;75.82;;
59846;SDS011;45728;48.788;2.302;2023-02-14T09:33:23;97.03;;;48.58;;
59846;SDS011;45728;48.788;2.302;2023-02-14T09:35:53;93.18;;;74.32;;
59846;SDS011;45728;48.788;2.302;2023-02-14T09:38:19;93.35;;;69.72;;
59846;SDS011;45728;48.788;2.302;2023-02-14T09:40:45;89.50;;;68.63;;
59846;SDS011;45728;48.788;2.302;2023-02-14T09:45:50;86.60;;;66.15;;
59846;SDS011;45728;48.788;2.302;2023-02-14T09:48:27;76.07;;;62.08;;
59846;SDS011;45728;48.788;2.302;2023-02-14T09:51:07;81.38;;;59.92;;
59846;SDS011;45728;48.788;2.302;2023-02-14T09:53:50;78.40;;;59.40;;
59846;SDS011;45728;48.788;2.302;2023-02-14T10:00:41;73.38;;;57.17;;
59846;SDS011;45728;48.788;2.302;2023-02-14T10:05:52;70.40;;;53.97;;
59846;SDS011;45728;48.788;2.302;2023-02-14T10:11:42;69.35;;;55.40;;
59846;SDS011;45728;48.788;2.302;2023-02-14T10:14:15;70.93;;;53.78;;
59846;SDS011;45728;48.788;2.302;2023-02-14T10:19:19;66.32;;;54.22;;
59846;SDS011;45728;48.788;2.302;2023-02-14T10:21:54;68.15;;;54.42;;
59846;SDS011;45728;48.788;2.302;2023-02-14T10:27:25;69.68;;;52.78;;
59846;SDS011;45728;48.788;2.302;2023-02-14T10:29:59;62.38;;;48.83;;
59846;SDS011;45728;48.788;2.302;2023-02-14T10:35:10;64.47;;;50.25;;
59846;SDS011;45728;48.788;2.302;2023-02-14T10:37:50;74.38;;;54.92;;
59846;SDS011;45728;48.788;2.302;2023-02-14T10:40:54;63.65;;;50.60;;
59846;SDS011;45728;48.788;2.302;2023-02-14T10:44:13;63.90;;;49.38;;
59846;SDS011;45728;48.788;2.302;2023-02-14T10:47:07;61.35;;;49.00;;
59846;SDS011;45728;48.788;2.302;2023-02-14T10:52:45;63.80;;;49.75;;
59846;SDS011;45728;48.788;2.302;2023-02-14T10:55:45;63.03;;;50.15;;
59846;SDS011;45728;48.788;2.302;2023-02-14T10:58:17;60.72;;;49.65;;
59846;SDS011;45728;48.788;2.302;2023-02-14T11:00:59;62.05;;;51.90;;
59846;SDS011;45728;48.788;2.302;2023-02-14T11:03:38;63.60;;;48.00;;
59846;SDS011;45728;48.788;2.302;2023-02-14T11:06:09;62.70;;;49.80;;
59846;SDS011;45728;48.788;2.302;2023-02-14T11:08:37;66.22;;;51.95;;
59846;SDS011;45728;48.788;2.302;2023-02-14T11:13:51;50.20;;;40.75;;
59846;SDS011;45728;48.788;2.302;2023-02-14T11:16:30;52.35;;;42.13;;
59846;SDS011;45728;48.788;2.302;2023-02-14T11:19:08;54.83;;;42.08;;
59846;SDS011;45728;48.788;2.302;2023-02-14T11:21:46;49.78;;;39.53;;
59846;SDS011;45728;48.788;2.302;2023-02-14T11:27:14;51.75;;;38.88;;
59846;SDS011;45728;48.788;2.302;2023-02-14T11:29:43;50.53;;;40.53;;
59846;SDS011;45728;48.788;2.302;2023-02-14T11:32:13;49.45;;;38.35;;
59846;SDS011;45728;48.788;2.302;2023-02-14T11:35:06;52.53;;;40.35;;
59846;SDS011;45728;48.788;2.302;2023-02-14T11:37:36;50.88;;;39.05;;
59846;SDS011;45728;48.788;2.302;2023-02-14T11:40:06;49.90;;;38.20;;
59846;SDS011;45728;48.788;2.302;2023-02-14T11:43:16;48.50;;;39.25;;
59846;SDS011;45728;48.788;2.302;2023-02-14T11:45:45;64.30;;;47.95;;
59846;SDS011;45728;48.788;2.302;2023-02-14T11:50:43;54.05;;;40.95;;
59846;SDS011;45728;48.788;2.302;2023-02-14T11:53:21;50.97;;;38.22;;
59846;SDS011;45728;48.788;2.302;2023-02-14T11:55:50;48.38;;;36.97;;
59846;SDS011;45728;48.788;2.302;2023-02-14T11:58:26;49.30;;;38.20;;
59846;SDS011;45728;48.788;2.302;2023-02-14T12:00:56;46.88;;;37.15;;
59846;SDS011;45728;48.788;2.302;2023-02-14T12:03:22;53.30;;;39.97;;
59846;SDS011;45728;48.788;2.302;2023-02-14T12:05:48;46.53;;;36.85;;
59846;SDS011;45728;48.788;2.302;2023-02-14T12:08:22;47.25;;;37.35;;
59846;SDS011;45728;48.788;2.302;2023-02-14T12:11:00;48.30;;;36.50;;
59846;SDS011;45728;48.788;2.302;2023-02-14T12:13:28;48.35;;;39.53;;
59846;SDS011;45728;48.788;2.302;2023-02-14T12:15:56;49.58;;;37.67;;
59846;SDS011;45728;48.788;2.302;2023-02-14T12:26:35;43.72;;;35.40;;
59846;SDS011;45728;48.788;2.302;2023-02-14T12:31:37;48.72;;;36.95;;
59846;SDS011;45728;48.788;2.302;2023-02-14T12:34:03;49.67;;;37.97;;
59846;SDS011;45728;48.788;2.302;2023-02-14T12:47:25;47.47;;;36.13;;
59846;SDS011;45728;48.788;2.302;2023-02-14T12:56:09;40.63;;;31.40;;
59846;SDS011;45728;48.788;2.302;2023-02-14T12:58:45;47.72;;;33.55;;
59846;SDS011;45728;48.788;2.302;2023-02-14T13:07:36;43.75;;;33.97;;
59846;SDS011;45728;48.788;2.302;2023-02-14T13:18:04;43.00;;;33.53;;
59846;SDS011;45728;48.788;2.302;2023-02-14T13:20:47;43.20;;;32.35;;
59846;SDS011;45728;48.788;2.302;2023-02-14T13:28:36;44.22;;;32.78;;
59846;SDS011;45728;48.788;2.302;2023-02-14T13:31:03;41.72;;;31.23;;
59846;SDS011;45728;48.788;2.302;2023-02-14T13:33:32;41.95;;;31.30;;
59846;SDS011;45728;48.788;2.302;2023-02-14T13:36:06;40.20;;;30.10;;
59846;SDS011;45728;48.788;2.302;2023-02-14T13:38:44;40.53;;;29.48;;
59846;SDS011;45728;48.788;2.302;2023-02-14T13:41:19;40.75;;;30.38;;
59846;SDS011;45728;48.788;2.302;2023-02-14T13:43:48;41.28;;;31.00;;
59846;SDS011;45728;48.788;2.302;2023-02-14T13:48:54;39.50;;;29.88;;
59846;SDS011;45728;48.788;2.302;2023-02-14T13:51:29;37.80;;;28.73;;
59846;SDS011;45728;48.788;2.302;2023-02-14T14:02:52;39.95;;;29.08;;
59846;SDS011;45728;48.788;2.302;2023-02-14T14:10:57;38.00;;;28.73;;
59846;SDS011;45728;48.788;2.302;2023-02-14T14:18:57;39.45;;;29.17;;
59846;SDS011;45728;48.788;2.302;2023-02-14T14:21:25;43.08;;;29.80;;
59846;SDS011;45728;48.788;2.302;2023-02-14T14:30:04;41.27;;;29.13;;
59846;SDS011;45728;48.788;2.302;2023-02-14T14:32:39;41.15;;;28.08;;
59846;SDS011;45728;48.788;2.302;2023-02-14T14:37:44;39.88;;;27.45;;
59846;SDS011;45728;48.788;2.302;2023-02-14T14:43:10;36.38;;;27.92;;
59846;SDS011;45728;48.788;2.302;2023-02-14T14:45:39;37.40;;;25.67;;
59846;SDS011;45728;48.788;2.302;2023-02-14T14:48:12;37.08;;;26.40;;
59846;SDS011;45728;48.788;2.302;2023-02-14T14:50:51;36.45;;;25.40;;
59846;SDS011;45728;48.788;2.302;2023-02-14T14:53:20;38.25;;;24.70;;
59846;SDS011;45728;48.788;2.302;2023-02-14T14:55:50;33.22;;;23.58;;
59846;SDS011;45728;48.788;2.302;2023-02-14T15:01:01;33.53;;;21.25;;
59846;SDS011;45728;48.788;2.302;2023-02-14T15:03:28;46.83;;;31.27;;
59846;SDS011;45728;48.788;2.302;2023-02-14T15:06:03;32.75;;;21.83;;
59846;SDS011;45728;48.788;2.302;2023-02-14T15:08:32;31.38;;;21.80;;
59846;SDS011;45728;48.788;2.302;2023-02-14T15:16:47;33.20;;;22.92;;
59846;SDS011;45728;48.788;2.302;2023-02-14T15:19:26;32.92;;;23.38;;
59846;SDS011;45728;48.788;2.302;2023-02-14T15:22:06;31.05;;;23.02;;
59846;SDS011;45728;48.788;2.302;2023-02-14T15:24:43;30.60;;;23.40;;
59846;SDS011;45728;48.788;2.302;2023-02-14T15:27:16;31.85;;;22.48;;
59846;SDS011;45728;48.788;2.302;2023-02-14T15:32:44;34.85;;;25.30;;
59846;SDS011;45728;48.788;2.302;2023-02-14T15:35:12;32.58;;;23.90;;
59846;SDS011;45728;48.788;2.302;2023-02-14T15:37:41;32.83;;;24.00;;
59846;SDS011;45728;48.788;2.302;2023-02-14T15:40:42;51.92;;;33.78;;
59846;SDS011;45728;48.788;2.302;2023-02-14T15:45:47;37.08;;;25.33;;
59846;SDS011;45728;48.788;2.302;2023-02-14T15:48:23;37.15;;;25.40;;
59846;SDS011;45728;48.788;2.302;2023-02-14T15:50:58;38.97;;;25.77;;
59846;SDS011;45728;48.788;2.302;2023-02-14T15:56:07;33.08;;;22.77;;
59846;SDS011;45728;48.788;2.302;2023-02-14T15:58:44;30.80;;;22.88;;
59846;SDS011;45728;48.788;2.302;2023-02-14T16:01:11;32.67;;;22.88;;
59846;SDS011;45728;48.788;2.302;2023-02-14T16:03:38;31.80;;;21.85;;
59846;SDS011;45728;48.788;2.302;2023-02-14T16:06:13;28.90;;;21.33;;
59846;SDS011;45728;48.788;2.302;2023-02-14T16:08:54;27.73;;;20.67;;
59846;SDS011;45728;48.788;2.302;2023-02-14T16:13:52;28.90;;;20.63;;
59846;SDS011;45728;48.788;2.302;2023-02-14T16:16:19;30.73;;;20.77;;
59846;SDS011;45728;48.788;2.302;2023-02-14T16:18:45;30.27;;;21.50;;
59846;SDS011;45728;48.788;2.302;2023-02-14T16:23:46;29.30;;;22.60;;
59846;SDS011;45728;48.788;2.302;2023-02-14T16:26:33;29.27;;;22.05;;
59846;SDS011;45728;48.788;2.302;2023-02-14T16:29:06;29.85;;;22.83;;
59846;SDS011;45728;48.788;2.302;2023-02-14T16:31:34;27.80;;;22.50;;
59846;SDS011;45728;48.788;2.302;2023-02-14T16:34:04;31.10;;;22.27;;
59846;SDS011;45728;48.788;2.302;2023-02-14T16:36:30;28.38;;;22.40;;
59846;SDS011;45728;48.788;2.302;2023-02-14T16:39:01;28.63;;;22.05;;
59846;SDS011;45728;48.788;2.302;2023-02-14T16:41:32;33.40;;;24.35;;
59846;SDS011;45728;48.788;2.302;2023-02-14T16:43:59;26.70;;;21.25;;
59846;SDS011;45728;48.788;2.302;2023-02-14T16:46:29;34.00;;;22.77;;
59846;SDS011;45728;48.788;2.302;2023-02-14T16:48:57;30.25;;;21.73;;
59846;SDS011;45728;48.788;2.302;2023-02-14T16:51:24;31.77;;;22.15;;
59846;SDS011;45728;48.788;2.302;2023-02-14T16:56:24;33.17;;;23.35;;
59846;SDS011;45728;48.788;2.302;2023-02-14T16:58:54;36.03;;;23.83;;
59846;SDS011;45728;48.788;2.302;2023-02-14T17:01:22;28.67;;;22.25;;
59846;SDS011;45728;48.788;2.302;2023-02-14T17:03:49;34.42;;;23.75;;
59846;SDS011;45728;48.788;2.302;2023-02-14T17:06:16;31.90;;;23.90;;
59846;SDS011;45728;48.788;2.302;2023-02-14T17:08:45;34.03;;;24.35;;
59846;SDS011;45728;48.788;2.302;2023-02-14T17:11:12;32.70;;;23.30;;
59846;SDS011;45728;48.788;2.302;2023-02-14T17:13:39;32.00;;;23.98;;
59846;SDS011;45728;48.788;2.302;2023-02-14T17:16:09;36.33;;;23.85;;
59846;SDS011;45728;48.788;2.302;2023-02-14T17:18:37;36.95;;;24.90;;
59846;SDS011;45728;48.788;2.302;2023-02-14T17:21:05;40.65;;;26.13;;
59846;SDS011;45728;48.788;2.302;2023-02-14T17:23:32;37.88;;;25.10;;
59846;SDS011;45728;48.788;2.302;2023-02-14T17:25:58;34.42;;;24.98;;
59846;SDS011;45728;48.788;2.302;2023-02-14T17:28:24;40.00;;;25.60;;
59846;SDS011;45728;48.788;2.302;2023-02-14T17:30:51;37.20;;;25.23;;
59846;SDS011;45728;48.788;2.302;2023-02-14T17:33:17;40.63;;;26.35;;
59846;SDS011;45728;48.788;2.302;2023-02-14T17:35:44;35.38;;;24.75;;
59846;SDS011;45728;48.788;2.302;2023-02-14T17:38:11;36.72;;;25.45;;